Time,TemperatureF,DewpointF,PressureIn,WindDirection,WindDirectionDegrees,WindSpeedMPH,WindSpeedGustMPH,Humidity,HourlyPrecipIn,Conditions,Clouds,dailyrainin,SolarRadiationWatts/m^2,SoftwareType,DateUTC
2013-04-04 00:06:00,50.7,44.4,29.89,WNW,285,1.0,1.0,79,0.00,,,0.00,0,Wunderground v.1.15,2013-04-04 07:06:00,
2013-04-04 00:16:00,50.7,44.4,29.89,West,281,1.0,1.0,79,0.00,,,0.00,0,Wunderground v.1.15,2013-04-04 07:16:00,
2013-04-04 00:26:00,50.8,44.5,29.89,West,280,1.0,2.0,79,0.00,,,0.00,0,Wunderground v.1.15,2013-04-04 07:26:00,
2013-04-04 00:41:00,50.8,44.5,29.88,West,278,1.0,1.0,79,0.00,,,0.00,0,Wunderground v.1.15,2013-04-04 07:41:00,
2013-04-04 00:47:00,50.8,44.5,29.88,West,278,1.0,1.0,79,0.00,,,0.00,0,Wunderground v.1.15,2013-04-04 07:47:00,
2013-04-04 01:01:00,50.8,44.2,29.88,West,277,1.0,1.0,78,0.00,,,0.00,0,Wunderground v.1.15,2013-04-04 08:01:00,
2013-04-04 01:07:00,50.8,44.2,29.88,West,277,0.0,1.0,78,0.00,,,0.00,0,Wunderground v.1.15,2013-04-04 08:07:00,
2013-04-04 01:17:00,50.8,43.8,29.87,West,277,0.0,0.0,77,0.00,,,0.00,0,Wunderground v.1.15,2013-04-04 08:17:00,
2013-04-04 01:31:00,50.7,44.1,29.87,West,277,0.0,0.0,78,0.00,,,0.00,0,Wunderground v.1.15,2013-04-04 08:31:00,
2013-04-04 01:47:00,50.7,44.1,29.86,West,277,0.0,0.0,78,0.00,,,0.00,0,Wunderground v.1.15,2013-04-04 08:47:00,
2013-04-04 01:57:00,50.5,43.9,29.86,West,274,0.0,0.0,78,0.00,,,0.00,0,Wunderground v.1.15,2013-04-04 08:57:00,
2013-04-04 02:07:00,50.4,44.1,29.86,WNW,295,0.0,0.0,79,0.00,,,0.00,0,Wunderground v.1.15,2013-04-04 09:07:00,
2013-04-04 02:17:00,50.1,43.8,29.85,WNW,295,0.0,1.0,79,0.00,,,0.00,0,Wunderground v.1.15,2013-04-04 09:17:00,
2013-04-04 02:26:00,49.9,44.0,29.85,WNW,295,0.0,0.0,80,0.00,,,0.00,0,Wunderground v.1.15,2013-04-04 09:26:00,
2013-04-04 02:36:00,49.8,43.9,29.84,WNW,295,0.0,0.0,80,0.00,,,0.00,0,Wunderground v.1.15,2013-04-04 09:36:00,
2013-04-04 02:51:00,49.6,44.0,29.84,WNW,295,0.0,0.0,81,0.00,,,0.00,0,Wunderground v.1.15,2013-04-04 09:51:00,
2013-04-04 03:01:00,49.5,43.9,29.84,WNW,295,0.0,0.0,81,0.00,,,0.00,0,Wunderground v.1.15,2013-04-04 10:01:00,
2013-04-04 03:06:00,49.5,44.2,29.84,WNW,295,0.0,0.0,82,0.00,,,0.00,0,Wunderground v.1.15,2013-04-04 10:06:00,
2013-04-04 03:16:00,49.5,44.6,29.83,WNW,295,0.0,0.0,83,0.00,,,0.00,0,Wunderground v.1.15,2013-04-04 10:16:00,
2013-04-04 03:26:00,49.5,44.6,29.83,WNW,295,1.0,2.0,83,0.00,,,0.00,0,Wunderground v.1.15,2013-04-04 10:26:00,
2013-04-04 03:36:00,49.5,44.9,29.83,WNW,295,0.0,1.0,84,0.00,,,0.00,0,Wunderground v.1.15,2013-04-04 10:36:00,
2013-04-04 03:46:00,49.4,45.1,29.82,WNW,294,1.0,1.0,85,0.00,,,0.00,0,Wunderground v.1.15,2013-04-04 10:46:00,
2013-04-04 03:51:00,49.4,45.1,29.82,WNW,295,1.0,1.0,85,0.00,,,0.00,0,Wunderground v.1.15,2013-04-04 10:51:00,
2013-04-04 04:01:00,49.4,45.1,29.81,WNW,295,0.0,0.0,85,0.00,,,0.00,0,Wunderground v.1.15,2013-04-04 11:01:00,
2013-04-04 04:06:00,49.4,45.1,29.81,WNW,295,0.0,0.0,85,0.00,,,0.00,0,Wunderground v.1.15,2013-04-04 11:06:00,
2013-04-04 04:17:00,49.2,44.9,29.81,WNW,295,0.0,0.0,85,0.00,,,0.00,0,Wunderground v.1.15,2013-04-04 11:17:00,
2013-04-04 04:27:00,49.2,44.9,29.81,WNW,295,0.0,0.0,85,0.00,,,0.00,0,Wunderground v.1.15,2013-04-04 11:27:00,
2013-04-04 04:41:00,49.4,45.1,29.81,WNW,295,0.0,0.0,85,0.00,,,0.00,0,Wunderground v.1.15,2013-04-04 11:41:00,
2013-04-04 04:52:00,49.4,44.8,29.80,WNW,295,0.0,0.0,84,0.00,,,0.00,0,Wunderground v.1.15,2013-04-04 11:52:00,
2013-04-04 05:02:00,49.4,44.8,29.79,WNW,295,0.0,0.0,84,0.00,,,0.00,0,Wunderground v.1.15,2013-04-04 12:02:00,
2013-04-04 05:12:00,49.4,44.8,29.79,WNW,295,0.0,0.0,84,0.00,,,0.00,0,Wunderground v.1.15,2013-04-04 12:12:00,
2013-04-04 05:22:00,49.4,44.8,29.79,WNW,295,0.0,0.0,84,0.00,,,0.00,0,Wunderground v.1.15,2013-04-04 12:22:00,
2013-04-04 05:30:00,49.2,44.6,29.78,WNW,295,0.0,0.0,84,0.00,,,0.00,0,Wunderground v.1.15,2013-04-04 12:30:00,
2013-04-04 05:40:00,49.2,44.9,29.78,WNW,296,1.0,1.0,85,0.00,,,0.00,0,Wunderground v.1.15,2013-04-04 12:40:00,
2013-04-04 05:51:00,49.2,44.6,29.77,WNW,296,0.0,0.0,84,0.00,,,0.00,0,Wunderground v.1.15,2013-04-04 12:51:00,
2013-04-04 05:56:00,49.2,44.9,29.77,WNW,298,0.0,0.0,85,0.00,,,0.00,0,Wunderground v.1.15,2013-04-04 12:56:00,
2013-04-04 06:01:00,49.2,44.9,29.76,WNW,298,0.0,1.0,85,0.00,,,0.00,0,Wunderground v.1.15,2013-04-04 13:01:00,
2013-04-04 06:06:00,49.2,44.9,29.76,WNW,298,0.0,1.0,85,0.00,,,0.00,0,Wunderground v.1.15,2013-04-04 13:06:00,
2013-04-04 06:21:00,49.1,44.8,29.76,WNW,298,0.0,0.0,85,0.00,,,0.00,0,Wunderground v.1.15,2013-04-04 13:21:00,
2013-04-04 06:31:00,49.1,44.8,29.75,WNW,296,0.0,0.0,85,0.00,,,0.00,0,Wunderground v.1.15,2013-04-04 13:31:00,
2013-04-04 06:36:00,49.1,44.8,29.75,WNW,298,0.0,0.0,85,0.00,,,0.00,0,Wunderground v.1.15,2013-04-04 13:36:00,
2013-04-04 06:41:00,49.1,44.8,29.75,WNW,298,0.0,0.0,85,0.00,,,0.00,0,Wunderground v.1.15,2013-04-04 13:41:00,
2013-04-04 06:46:00,49.1,44.8,29.75,WNW,298,0.0,0.0,85,0.00,,,0.00,0,Wunderground v.1.15,2013-04-04 13:46:00,
2013-04-04 06:57:00,49.2,44.9,29.75,WNW,298,0.0,0.0,85,0.00,,,0.00,7,Wunderground v.1.15,2013-04-04 13:57:00,
2013-04-04 07:21:00,49.2,45.5,29.74,WNW,298,0.0,0.0,87,0.00,,,0.00,12,Wunderground v.1.15,2013-04-04 14:21:00,
2013-04-04 07:30:00,49.4,46.0,29.73,WNW,298,0.0,0.0,88,0.00,,,0.00,14,Wunderground v.1.15,2013-04-04 14:30:00,
2013-04-04 07:40:00,49.6,46.5,29.73,WNW,298,0.0,0.0,89,0.00,,,0.00,25,Wunderground v.1.15,2013-04-04 14:40:00,
2013-04-04 07:46:00,49.5,46.7,29.72,WNW,296,1.0,2.0,90,0.00,,,0.00,33,Wunderground v.1.15,2013-04-04 14:46:00,
2013-04-04 08:06:00,49.6,47.1,29.71,WNW,299,1.0,1.0,91,0.00,,,0.00,48,Wunderground v.1.15,2013-04-04 15:06:00,
2013-04-04 08:21:00,49.5,47.0,29.72,WNW,301,0.0,1.0,91,0.00,,,0.01,53,Wunderground v.1.15,2013-04-04 15:21:00,
2013-04-04 08:27:00,49.6,47.1,29.72,WNW,301,0.0,2.0,91,0.00,,,0.01,62,Wunderground v.1.15,2013-04-04 15:27:00,
2013-04-04 08:37:00,49.6,47.4,29.70,WNW,301,1.0,1.0,92,0.00,,,0.01,84,Wunderground v.1.15,2013-04-04 15:37:00,
2013-04-04 08:47:00,49.6,47.1,29.69,WNW,295,1.0,4.0,91,0.00,,,0.01,77,Wunderground v.1.15,2013-04-04 15:47:00,
2013-04-04 08:57:00,49.6,47.4,29.69,WNW,295,0.0,0.0,92,0.00,,,0.01,51,Wunderground v.1.15,2013-04-04 15:57:00,
2013-04-04 09:07:00,49.8,47.6,29.70,WNW,295,0.0,1.0,92,0.00,,,0.01,48,Wunderground v.1.15,2013-04-04 16:07:00,
2013-04-04 09:17:00,49.9,47.7,29.69,WNW,295,1.0,2.0,92,0.00,,,0.01,72,Wunderground v.1.15,2013-04-04 16:17:00,
2013-04-04 09:30:00,50.2,48.3,29.69,WNW,295,0.0,0.0,93,0.00,,,0.01,67,Wunderground v.1.15,2013-04-04 16:30:00,
2013-04-04 09:36:00,50.4,48.2,29.69,WNW,295,1.0,2.0,92,0.00,,,0.01,63,Wunderground v.1.15,2013-04-04 16:36:00,
2013-04-04 09:51:00,50.7,48.7,29.68,WNW,295,1.0,1.0,93,0.00,,,0.01,69,Wunderground v.1.15,2013-04-04 16:51:00,
2013-04-04 09:56:00,50.7,48.7,29.68,WNW,295,1.0,3.0,93,0.00,,,0.01,63,Wunderground v.1.15,2013-04-04 16:56:00,
2013-04-04 10:16:00,51.0,49.3,29.67,WNW,295,1.0,1.0,94,0.00,,,0.02,74,Wunderground v.1.15,2013-04-04 17:16:00,
2013-04-04 10:27:00,51.3,49.6,29.67,WNW,295,0.0,0.0,94,0.00,,,0.02,77,Wunderground v.1.15,2013-04-04 17:27:00,
2013-04-04 10:36:00,51.3,49.6,29.67,WNW,302,1.0,4.0,94,0.00,,,0.02,111,Wunderground v.1.15,2013-04-04 17:36:00,
2013-04-04 10:51:00,51.1,49.4,29.66,WNW,301,1.0,1.0,94,0.00,,,0.02,109,Wunderground v.1.15,2013-04-04 17:51:00,
2013-04-04 11:01:00,51.1,49.4,29.66,WNW,301,1.0,1.0,94,0.00,,,0.02,93,Wunderground v.1.15,2013-04-04 18:01:00,
2013-04-04 11:07:00,51.1,49.4,29.66,WNW,301,0.0,1.0,94,0.00,,,0.02,90,Wunderground v.1.15,2013-04-04 18:07:00,
2013-04-04 11:17:00,51.0,49.3,29.67,WNW,299,0.0,1.0,94,0.00,,,0.03,111,Wunderground v.1.15,2013-04-04 18:17:00,
2013-04-04 11:30:00,50.7,49.0,29.66,WNW,302,1.0,3.0,94,0.00,,,0.03,90,Wunderground v.1.15,2013-04-04 18:30:00,
2013-04-04 11:37:00,50.5,48.8,29.66,WNW,302,2.0,3.0,94,0.00,,,0.03,90,Wunderground v.1.15,2013-04-04 18:37:00,
2013-04-04 11:50:00,50.7,49.3,29.66,WNW,301,1.0,1.0,95,0.00,,,0.03,146,Wunderground v.1.15,2013-04-04 18:50:00,
2013-04-04 12:01:00,51.0,49.6,29.66,WNW,299,1.0,1.0,95,0.00,,,0.04,139,Wunderground v.1.15,2013-04-04 19:01:00,
2013-04-04 12:06:00,51.3,49.9,29.66,WNW,296,0.0,1.0,95,0.00,,,0.04,135,Wunderground v.1.15,2013-04-04 19:06:00,
2013-04-04 12:16:00,51.3,49.9,29.65,WNW,296,0.0,0.0,95,0.00,,,0.04,160,Wunderground v.1.15,2013-04-04 19:16:00,
2013-04-04 12:31:00,51.7,50.3,29.64,WNW,301,0.0,0.0,95,0.00,,,0.04,171,Wunderground v.1.15,2013-04-04 19:31:00,
2013-04-04 12:36:00,51.9,50.8,29.64,WNW,299,0.0,0.0,96,0.00,,,0.04,157,Wunderground v.1.15,2013-04-04 19:36:00,
2013-04-04 12:41:00,52.3,51.2,29.64,WNW,299,0.0,0.0,96,0.00,,,0.05,155,Wunderground v.1.15,2013-04-04 19:41:00,
2013-04-04 12:47:00,52.6,51.5,29.63,WNW,299,0.0,0.0,96,0.00,,,0.05,155,Wunderground v.1.15,2013-04-04 19:47:00,
2013-04-04 12:57:00,52.5,51.1,29.63,WNW,301,0.0,1.0,95,0.04,,,0.06,171,Wunderground v.1.15,2013-04-04 19:57:00,
2013-04-04 13:07:00,52.5,51.1,29.64,WNW,299,0.0,1.0,95,0.04,,,0.06,144,Wunderground v.1.15,2013-04-04 20:07:00,
2013-04-04 13:17:00,52.5,51.4,29.63,WNW,301,0.0,0.0,96,0.04,,,0.07,135,Wunderground v.1.15,2013-04-04 20:17:00,
2013-04-04 13:27:00,52.9,51.5,29.63,WNW,299,0.0,2.0,95,0.07,,,0.08,120,Wunderground v.1.15,2013-04-04 20:27:00,
2013-04-04 13:36:00,52.0,50.6,29.62,WNW,299,1.0,1.0,95,0.04,,,0.08,127,Wunderground v.1.15,2013-04-04 20:36:00,
2013-04-04 13:50:00,51.6,50.5,29.62,WNW,299,0.0,0.0,96,0.08,,,0.10,144,Wunderground v.1.15,2013-04-04 20:50:00,
2013-04-04 14:00:00,51.9,50.8,29.62,WNW,301,0.0,1.0,96,0.04,,,0.10,106,Wunderground v.1.15,2013-04-04 21:00:00,
2013-04-04 14:06:00,51.9,50.8,29.62,WNW,299,0.0,1.0,96,0.00,,,0.11,90,Wunderground v.1.15,2013-04-04 21:06:00,
2013-04-04 14:16:00,51.9,50.8,29.62,WNW,301,1.0,1.0,96,0.07,,,0.12,81,Wunderground v.1.15,2013-04-04 21:16:00,
2013-04-04 14:26:00,51.9,50.8,29.62,WNW,299,0.0,1.0,96,0.04,,,0.13,76,Wunderground v.1.15,2013-04-04 21:26:00,
2013-04-04 14:36:00,51.7,50.6,29.62,WNW,299,0.0,0.0,96,0.04,,,0.13,86,Wunderground v.1.15,2013-04-04 21:36:00,
2013-04-04 14:47:00,51.9,51.1,29.62,WNW,299,0.0,0.0,97,0.05,,,0.14,76,Wunderground v.1.15,2013-04-04 21:47:00,
2013-04-04 15:01:00,51.6,50.5,29.62,WNW,301,0.0,0.0,96,0.00,,,0.15,67,Wunderground v.1.15,2013-04-04 22:01:00,
2013-04-04 15:07:00,51.4,50.3,29.62,WNW,299,0.0,0.0,96,0.00,,,0.15,72,Wunderground v.1.15,2013-04-04 22:07:00,
2013-04-04 15:17:00,51.1,50.0,29.62,WNW,299,0.0,0.0,96,0.05,,,0.16,93,Wunderground v.1.15,2013-04-04 22:17:00,
2013-04-04 15:27:00,51.1,50.0,29.62,WNW,299,0.0,2.0,96,0.04,,,0.17,86,Wunderground v.1.15,2013-04-04 22:27:00,
2013-04-04 15:40:00,51.6,50.5,29.61,WNW,299,0.0,0.0,96,0.08,,,0.18,86,Wunderground v.1.15,2013-04-04 22:40:00,
2013-04-04 15:51:00,51.9,50.8,29.61,NNE,20,1.0,2.0,96,0.05,,,0.19,102,Wunderground v.1.15,2013-04-04 22:51:00,
2013-04-04 15:56:00,51.9,50.8,29.61,NNE,21,2.0,2.0,96,0.08,,,0.20,107,Wunderground v.1.15,2013-04-04 22:56:00,
2013-04-04 16:06:00,52.0,51.2,29.61,NNE,28,1.0,1.0,97,0.05,,,0.20,102,Wunderground v.1.15,2013-04-04 23:06:00,
2013-04-04 16:21:00,52.6,51.8,29.60,NNE,28,1.0,2.0,97,0.09,,,0.22,109,Wunderground v.1.15,2013-04-04 23:21:00,
2013-04-04 16:26:00,52.9,52.1,29.60,NNE,28,1.0,2.0,97,0.06,,,0.23,74,Wunderground v.1.15,2013-04-04 23:26:00,
2013-04-04 16:37:00,53.1,52.3,29.59,NNE,28,1.0,1.0,97,0.26,,,0.26,37,Wunderground v.1.15,2013-04-04 23:37:00,
2013-04-04 16:47:00,53.2,52.4,29.58,NNE,28,1.0,1.0,97,0.07,,,0.27,32,Wunderground v.1.15,2013-04-04 23:47:00,
2013-04-04 16:57:00,53.3,52.8,29.58,NNE,28,1.0,2.0,98,0.17,,,0.30,44,Wunderground v.1.15,2013-04-04 23:57:00,
2013-04-04 17:11:00,53.5,52.9,29.58,NE,56,1.0,1.0,98,0.09,,,0.32,26,Wunderground v.1.15,2013-04-05 00:11:00,
2013-04-04 17:21:00,53.6,53.0,29.59,NE,55,0.0,1.0,98,0.11,,,0.34,26,Wunderground v.1.15,2013-04-05 00:21:00,
2013-04-04 17:27:00,53.6,53.0,29.59,ENE,68,1.0,1.0,98,0.09,,,0.34,48,Wunderground v.1.15,2013-04-05 00:27:00,
2013-04-04 17:36:00,53.9,53.3,29.58,East,85,3.0,3.0,98,0.04,,,0.34,25,Wunderground v.1.15,2013-04-05 00:36:00,
2013-04-04 17:46:00,53.8,53.2,29.59,East,97,1.0,2.0,98,0.04,,,0.35,44,Wunderground v.1.15,2013-04-05 00:46:00,
2013-04-04 17:56:00,53.9,53.3,29.59,ESE,104,3.0,11.0,98,0.00,,,0.35,55,Wunderground v.1.15,2013-04-05 00:56:00,
2013-04-04 18:11:00,54.7,53.9,29.59,ESE,112,8.0,12.0,97,0.00,,,0.36,14,Wunderground v.1.15,2013-04-05 01:11:00,
2013-04-04 18:16:00,54.8,53.7,29.59,ESE,102,8.0,12.0,96,0.04,,,0.37,16,Wunderground v.1.15,2013-04-05 01:16:00,
2013-04-04 18:26:00,55.0,53.6,29.59,ESE,119,7.0,11.0,95,0.04,,,0.37,12,Wunderground v.1.15,2013-04-05 01:26:00,
2013-04-04 18:31:00,55.0,53.3,29.60,SSE,165,7.0,8.0,94,0.04,,,0.37,16,Wunderground v.1.15,2013-04-05 01:31:00,
2013-04-04 18:41:00,54.8,53.1,29.60,SSE,151,7.0,7.0,94,0.00,,,0.37,30,Wunderground v.1.15,2013-04-05 01:41:00,
2013-04-04 18:51:00,55.0,52.7,29.60,South,178,7.0,7.0,92,0.00,,,0.37,26,Wunderground v.1.15,2013-04-05 01:51:00,
2013-04-04 18:56:00,55.1,52.5,29.60,SE,131,6.0,7.0,91,0.00,,,0.37,35,Wunderground v.1.15,2013-04-05 01:56:00,
2013-04-04 19:07:00,55.4,52.2,29.61,East,95,7.0,11.0,89,0.00,,,0.37,28,Wunderground v.1.15,2013-04-05 02:07:00,
2013-04-04 19:27:00,55.9,52.1,29.61,SSE,150,6.0,7.0,87,0.00,,,0.37,11,Wunderground v.1.15,2013-04-05 02:27:00,
2013-04-04 19:36:00,56.0,51.6,29.62,ESE,121,6.0,6.0,85,0.00,,,0.37,5,Wunderground v.1.15,2013-04-05 02:36:00,
2013-04-04 19:46:00,56.3,51.2,29.62,South,178,7.0,13.0,83,0.00,,,0.37,0,Wunderground v.1.15,2013-04-05 02:46:00,
2013-04-04 19:56:00,56.3,50.9,29.62,South,178,7.0,12.0,82,0.00,,,0.37,0,Wunderground v.1.15,2013-04-05 02:56:00,
2013-04-04 20:06:00,56.3,51.2,29.63,SSE,161,6.0,7.0,83,0.00,,,0.37,0,Wunderground v.1.15,2013-04-05 03:06:00,
2013-04-04 20:16:00,56.0,51.2,29.63,SSE,154,4.0,5.0,84,0.00,,,0.37,0,Wunderground v.1.15,2013-04-05 03:16:00,
2013-04-04 20:26:00,55.7,50.9,29.63,SSE,158,5.0,5.0,84,0.00,,,0.37,0,Wunderground v.1.15,2013-04-05 03:26:00,
2013-04-04 20:36:00,55.7,50.9,29.64,SSE,161,4.0,5.0,84,0.00,,,0.37,0,Wunderground v.1.15,2013-04-05 03:36:00,
2013-04-04 20:46:00,55.7,50.6,29.64,SE,144,4.0,7.0,83,0.00,,,0.37,0,Wunderground v.1.15,2013-04-05 03:46:00,
2013-04-04 20:56:00,55.9,50.8,29.64,SSE,161,5.0,6.0,83,0.00,,,0.37,0,Wunderground v.1.15,2013-04-05 03:56:00,
2013-04-04 21:01:00,55.9,51.1,29.65,ESE,117,5.0,5.0,84,0.00,,,0.37,0,Wunderground v.1.15,2013-04-05 04:01:00,
2013-04-04 21:07:00,55.7,50.9,29.65,SSE,148,6.0,6.0,84,0.00,,,0.37,0,Wunderground v.1.15,2013-04-05 04:07:00,
2013-04-04 21:11:00,55.9,50.8,29.65,SSE,167,6.0,6.0,83,0.00,,,0.37,0,Wunderground v.1.15,2013-04-05 04:11:00,
2013-04-04 21:17:00,56.0,50.6,29.65,SSE,155,7.0,7.0,82,0.00,,,0.37,0,Wunderground v.1.15,2013-04-05 04:17:00,
2013-04-04 21:21:00,56.0,50.3,29.65,South,172,7.0,13.0,81,0.00,,,0.37,0,Wunderground v.1.15,2013-04-05 04:21:00,
2013-04-04 21:27:00,55.9,50.2,29.65,ESE,107,5.0,13.0,81,0.00,,,0.37,0,Wunderground v.1.15,2013-04-05 04:27:00,
2013-04-04 21:37:00,55.9,50.2,29.66,SE,131,5.0,12.0,81,0.00,,,0.37,0,Wunderground v.1.15,2013-04-05 04:37:00,
2013-04-04 21:47:00,55.7,50.0,29.65,South,179,5.0,5.0,81,0.00,,,0.37,0,Wunderground v.1.15,2013-04-05 04:47:00,
2013-04-04 21:57:00,55.3,50.2,29.65,South,179,4.0,9.0,83,0.00,,,0.37,0,Wunderground v.1.15,2013-04-05 04:57:00,
2013-04-04 22:12:00,54.8,50.4,29.66,South,179,5.0,5.0,85,0.00,,,0.37,0,Wunderground v.1.15,2013-04-05 05:12:00,
2013-04-04 22:17:00,54.7,50.3,29.66,SSW,199,6.0,9.0,85,0.00,,,0.37,0,Wunderground v.1.15,2013-04-05 05:17:00,
2013-04-04 22:27:00,54.2,50.1,29.66,SSW,205,8.0,8.0,86,0.00,,,0.37,0,Wunderground v.1.15,2013-04-05 05:27:00,
2013-04-04 22:36:00,54.1,50.6,29.66,South,178,7.0,11.0,88,0.00,,,0.37,0,Wunderground v.1.15,2013-04-05 05:36:00,
2013-04-04 22:46:00,53.8,50.6,29.66,SSE,158,5.0,5.0,89,0.00,,,0.37,0,Wunderground v.1.15,2013-04-05 05:46:00,
2013-04-04 23:00:00,53.6,50.7,29.66,ESE,107,4.0,6.0,90,0.00,,,0.37,0,Wunderground v.1.15,2013-04-05 06:00:00,
2013-04-04 23:10:00,53.6,50.7,29.66,South,171,5.0,5.0,90,0.00,,,0.37,0,Wunderground v.1.15,2013-04-05 06:10:00,
2013-04-04 23:16:00,53.6,50.4,29.66,ESE,107,3.0,5.0,89,0.00,,,0.37,0,Wunderground v.1.15,2013-04-05 06:16:00,
2013-04-04 23:26:00,53.8,50.6,29.66,SE,127,3.0,3.0,89,0.00,,,0.37,0,Wunderground v.1.15,2013-04-05 06:26:00,
2013-04-04 23:31:00,53.8,50.6,29.66,ESE,121,4.0,6.0,89,0.00,,,0.37,0,Wunderground v.1.15,2013-04-05 06:31:00,
2013-04-04 23:36:00,54.1,50.6,29.66,ESE,109,5.0,11.0,88,0.00,,,0.37,0,Wunderground v.1.15,2013-04-05 06:36:00,
2013-04-04 23:46:00,54.4,50.3,29.66,SE,145,6.0,6.0,86,0.00,,,0.37,0,Wunderground v.1.15,2013-04-05 06:46:00,
2013-04-04 23:57:00,54.4,50.3,29.66,ESE,113,5.0,5.0,86,0.00,,,0.37,0,Wunderground v.1.15,2013-04-05 06:57:00,